sensor_id;sensor_type;location;lat;lon;timestamp;temperature;humidity
21849;DHT22;11089;49.852;19.700;2023-12-20T00:01:45;9.20;99.90
21849;DHT22;11089;49.852;19.700;2023-12-20T00:04:46;9.20;99.90
21849;DHT22;11089;49.852;19.700;2023-12-20T00:07:47;9.10;99.90
21849;DHT22;11089;49.852;19.700;2023-12-20T00:10:49;9.20;99.90
21849;DHT22;11089;49.852;19.700;2023-12-20T00:13:50;9.10;99.90
21849;DHT22;11089;49.852;19.700;2023-12-20T00:16:51;9.00;99.90
21849;DHT22;11089;49.852;19.700;2023-12-20T00:19:52;8.90;99.90
21849;DHT22;11089;49.852;19.700;2023-12-20T00:22:57;8.80;99.90
21849;DHT22;11089;49.852;19.700;2023-12-20T00:25:59;8.80;99.90
21849;DHT22;11089;49.852;19.700;2023-12-20T00:29:00;8.70;99.90
21849;DHT22;11089;49.852;19.700;2023-12-20T00:32:01;8.80;99.90
21849;DHT22;11089;49.852;19.700;2023-12-20T00:35:02;8.80;99.90
21849;DHT22;11089;49.852;19.700;2023-12-20T00:38:03;8.80;99.90
21849;DHT22;11089;49.852;19.700;2023-12-20T00:41:05;8.80;99.90
21849;DHT22;11089;49.852;19.700;2023-12-20T00:44:07;8.70;99.90
21849;DHT22;11089;49.852;19.700;2023-12-20T00:47:08;8.70;99.90
21849;DHT22;11089;49.852;19.700;2023-12-20T00:50:10;8.70;99.90
21849;DHT22;11089;49.852;19.700;2023-12-20T00:53:11;8.60;99.90
21849;DHT22;11089;49.852;19.700;2023-12-20T00:56:12;8.60;99.90
21849;DHT22;11089;49.852;19.700;2023-12-20T00:59:13;8.60;99.90
21849;DHT22;11089;49.852;19.700;2023-12-20T01:02:14;8.60;99.90
21849;DHT22;11089;49.852;19.700;2023-12-20T01:05:16;8.70;99.90
21849;DHT22;11089;49.852;19.700;2023-12-20T01:08:18;8.60;99.90
21849;DHT22;11089;49.852;19.700;2023-12-20T01:11:19;8.70;99.90
21849;DHT22;11089;49.852;19.700;2023-12-20T01:14:21;8.70;99.90
21849;DHT22;11089;49.852;19.700;2023-12-20T01:17:21;8.70;99.90
21849;DHT22;11089;49.852;19.700;2023-12-20T01:20:22;8.70;99.90
21849;DHT22;11089;49.852;19.700;2023-12-20T01:23:24;8.60;99.90
21849;DHT22;11089;49.852;19.700;2023-12-20T01:26:25;8.50;99.90
21849;DHT22;11089;49.852;19.700;2023-12-20T01:29:26;8.40;99.90
21849;DHT22;11089;49.852;19.700;2023-12-20T01:32:27;8.40;99.90
21849;DHT22;11089;49.852;19.700;2023-12-20T01:35:29;8.40;99.90
21849;DHT22;11089;49.852;19.700;2023-12-20T01:38:30;8.30;99.90
21849;DHT22;11089;49.852;19.700;2023-12-20T01:41:31;8.30;99.90
21849;DHT22;11089;49.852;19.700;2023-12-20T01:44:32;8.20;99.90
21849;DHT22;11089;49.852;19.700;2023-12-20T01:47:33;8.20;99.90
21849;DHT22;11089;49.852;19.700;2023-12-20T01:50:36;8.10;99.90
21849;DHT22;11089;49.852;19.700;2023-12-20T01:53:39;8.10;99.90
21849;DHT22;11089;49.852;19.700;2023-12-20T01:56:41;8.10;99.90
21849;DHT22;11089;49.852;19.700;2023-12-20T01:59:44;8.00;99.90
21849;DHT22;11089;49.852;19.700;2023-12-20T02:02:45;8.00;99.90
21849;DHT22;11089;49.852;19.700;2023-12-20T02:05:46;8.00;99.90
21849;DHT22;11089;49.852;19.700;2023-12-20T02:08:50;7.90;99.90
21849;DHT22;11089;49.852;19.700;2023-12-20T02:11:51;7.90;99.90
21849;DHT22;11089;49.852;19.700;2023-12-20T02:14:52;7.90;99.90
21849;DHT22;11089;49.852;19.700;2023-12-20T02:17:54;7.90;99.90
21849;DHT22;11089;49.852;19.700;2023-12-20T02:20:55;7.90;99.90
21849;DHT22;11089;49.852;19.700;2023-12-20T02:23:57;7.90;99.90
21849;DHT22;11089;49.852;19.700;2023-12-20T02:26:58;7.80;99.90
21849;DHT22;11089;49.852;19.700;2023-12-20T02:29:59;7.80;99.90
21849;DHT22;11089;49.852;19.700;2023-12-20T02:33:01;7.80;99.90
21849;DHT22;11089;49.852;19.700;2023-12-20T02:36:04;7.80;99.90
21849;DHT22;11089;49.852;19.700;2023-12-20T02:39:05;7.80;99.90
21849;DHT22;11089;49.852;19.700;2023-12-20T02:42:06;7.80;99.90
21849;DHT22;11089;49.852;19.700;2023-12-20T02:45:07;7.80;99.90
21849;DHT22;11089;49.852;19.700;2023-12-20T02:48:08;7.80;99.90
21849;DHT22;11089;49.852;19.700;2023-12-20T02:51:09;7.80;99.90
21849;DHT22;11089;49.852;19.700;2023-12-20T02:54:10;7.80;99.90
21849;DHT22;11089;49.852;19.700;2023-12-20T02:57:11;7.80;99.90
21849;DHT22;11089;49.852;19.700;2023-12-20T03:00:12;7.70;99.90
21849;DHT22;11089;49.852;19.700;2023-12-20T03:03:13;7.80;99.90
21849;DHT22;11089;49.852;19.700;2023-12-20T03:06:18;7.70;99.90
21849;DHT22;11089;49.852;19.700;2023-12-20T03:09:19;7.80;99.90
21849;DHT22;11089;49.852;19.700;2023-12-20T03:12:20;7.70;99.90
21849;DHT22;11089;49.852;19.700;2023-12-20T03:15:21;7.70;99.90
21849;DHT22;11089;49.852;19.700;2023-12-20T03:18:21;7.60;99.90
21849;DHT22;11089;49.852;19.700;2023-12-20T03:21:23;7.60;99.90
21849;DHT22;11089;49.852;19.700;2023-12-20T03:24:24;7.70;99.90
21849;DHT22;11089;49.852;19.700;2023-12-20T03:27:24;7.70;99.90
21849;DHT22;11089;49.852;19.700;2023-12-20T03:30:25;7.60;99.90
21849;DHT22;11089;49.852;19.700;2023-12-20T03:33:26;7.70;99.90
21849;DHT22;11089;49.852;19.700;2023-12-20T03:36:27;7.70;99.90
21849;DHT22;11089;49.852;19.700;2023-12-20T03:39:28;7.80;99.90
21849;DHT22;11089;49.852;19.700;2023-12-20T03:42:30;7.80;99.90
21849;DHT22;11089;49.852;19.700;2023-12-20T03:45:31;7.80;99.90
21849;DHT22;11089;49.852;19.700;2023-12-20T03:48:32;7.80;99.90
21849;DHT22;11089;49.852;19.700;2023-12-20T03:51:33;7.80;99.90
21849;DHT22;11089;49.852;19.700;2023-12-20T03:54:35;7.80;99.90
21849;DHT22;11089;49.852;19.700;2023-12-20T03:57:37;7.90;99.90
21849;DHT22;11089;49.852;19.700;2023-12-20T04:00:38;7.90;99.90
21849;DHT22;11089;49.852;19.700;2023-12-20T04:03:39;7.90;99.90
21849;DHT22;11089;49.852;19.700;2023-12-20T04:06:41;7.90;99.90
21849;DHT22;11089;49.852;19.700;2023-12-20T04:09:42;8.00;99.90
21849;DHT22;11089;49.852;19.700;2023-12-20T04:12:42;7.90;99.90
21849;DHT22;11089;49.852;19.700;2023-12-20T04:15:44;8.00;99.90
21849;DHT22;11089;49.852;19.700;2023-12-20T04:18:45;8.10;99.90
21849;DHT22;11089;49.852;19.700;2023-12-20T04:21:46;8.10;99.90
21849;DHT22;11089;49.852;19.700;2023-12-20T04:24:47;8.10;99.90
21849;DHT22;11089;49.852;19.700;2023-12-20T04:27:47;8.10;99.90
21849;DHT22;11089;49.852;19.700;2023-12-20T04:30:48;8.10;99.90
21849;DHT22;11089;49.852;19.700;2023-12-20T04:33:50;8.00;99.90
21849;DHT22;11089;49.852;19.700;2023-12-20T04:36:51;8.10;99.90
21849;DHT22;11089;49.852;19.700;2023-12-20T04:39:52;8.10;99.90
21849;DHT22;11089;49.852;19.700;2023-12-20T04:42:53;8.10;99.90
21849;DHT22;11089;49.852;19.700;2023-12-20T04:45:53;8.10;99.90
21849;DHT22;11089;49.852;19.700;2023-12-20T04:48:54;8.10;99.90
21849;DHT22;11089;49.852;19.700;2023-12-20T04:51:55;8.10;99.90
21849;DHT22;11089;49.852;19.700;2023-12-20T04:54:57;8.10;99.90
21849;DHT22;11089;49.852;19.700;2023-12-20T04:57:57;8.20;99.90
21849;DHT22;11089;49.852;19.700;2023-12-20T05:00:58;8.10;99.90
21849;DHT22;11089;49.852;19.700;2023-12-20T05:03:59;8.10;99.90
21849;DHT22;11089;49.852;19.700;2023-12-20T05:07:00;8.10;99.90
21849;DHT22;11089;49.852;19.700;2023-12-20T05:10:01;8.10;99.90
21849;DHT22;11089;49.852;19.700;2023-12-20T05:13:02;8.10;99.90
21849;DHT22;11089;49.852;19.700;2023-12-20T05:16:03;8.00;99.90
21849;DHT22;11089;49.852;19.700;2023-12-20T05:19:04;8.00;99.90
21849;DHT22;11089;49.852;19.700;2023-12-20T05:22:07;8.00;99.90
21849;DHT22;11089;49.852;19.700;2023-12-20T05:25:08;8.00;99.90
21849;DHT22;11089;49.852;19.700;2023-12-20T05:28:08;8.00;99.90
21849;DHT22;11089;49.852;19.700;2023-12-20T05:31:09;8.00;99.90
21849;DHT22;11089;49.852;19.700;2023-12-20T05:34:10;7.90;99.90
21849;DHT22;11089;49.852;19.700;2023-12-20T05:37:11;7.90;99.90
21849;DHT22;11089;49.852;19.700;2023-12-20T05:40:12;7.80;99.90
21849;DHT22;11089;49.852;19.700;2023-12-20T05:43:13;7.80;99.90
21849;DHT22;11089;49.852;19.700;2023-12-20T05:46:14;7.80;99.90
21849;DHT22;11089;49.852;19.700;2023-12-20T05:49:15;7.80;99.90
21849;DHT22;11089;49.852;19.700;2023-12-20T05:52:16;7.80;99.90
21849;DHT22;11089;49.852;19.700;2023-12-20T05:55:17;7.80;99.90
21849;DHT22;11089;49.852;19.700;2023-12-20T05:58:17;7.80;99.90
21849;DHT22;11089;49.852;19.700;2023-12-20T06:01:19;7.80;99.90
21849;DHT22;11089;49.852;19.700;2023-12-20T06:04:21;7.80;99.90
21849;DHT22;11089;49.852;19.700;2023-12-20T06:07:22;7.70;99.90
21849;DHT22;11089;49.852;19.700;2023-12-20T06:10:23;7.60;99.90
21849;DHT22;11089;49.852;19.700;2023-12-20T06:13:24;7.40;99.90
21849;DHT22;11089;49.852;19.700;2023-12-20T06:16:25;7.50;99.90
21849;DHT22;11089;49.852;19.700;2023-12-20T06:19:26;7.50;99.90
21849;DHT22;11089;49.852;19.700;2023-12-20T06:22:26;7.40;99.90
21849;DHT22;11089;49.852;19.700;2023-12-20T06:25:27;7.30;99.90
21849;DHT22;11089;49.852;19.700;2023-12-20T06:28:29;7.20;99.90
21849;DHT22;11089;49.852;19.700;2023-12-20T06:31:30;7.10;99.90
21849;DHT22;11089;49.852;19.700;2023-12-20T06:34:31;6.90;99.90
21849;DHT22;11089;49.852;19.700;2023-12-20T06:37:32;6.70;99.90
21849;DHT22;11089;49.852;19.700;2023-12-20T06:40:33;6.70;99.90
21849;DHT22;11089;49.852;19.700;2023-12-20T06:43:34;6.70;99.90
21849;DHT22;11089;49.852;19.700;2023-12-20T06:46:39;6.70;99.90
21849;DHT22;11089;49.852;19.700;2023-12-20T06:49:40;6.60;99.90
21849;DHT22;11089;49.852;19.700;2023-12-20T06:52:41;6.50;99.90
21849;DHT22;11089;49.852;19.700;2023-12-20T06:55:42;6.50;99.90
21849;DHT22;11089;49.852;19.700;2023-12-20T06:58:43;6.40;99.90
21849;DHT22;11089;49.852;19.700;2023-12-20T07:01:48;6.30;99.90
21849;DHT22;11089;49.852;19.700;2023-12-20T07:04:49;6.20;99.90
21849;DHT22;11089;49.852;19.700;2023-12-20T07:07:50;6.20;99.90
21849;DHT22;11089;49.852;19.700;2023-12-20T07:10:51;6.10;99.90
21849;DHT22;11089;49.852;19.700;2023-12-20T07:13:53;6.10;99.90
21849;DHT22;11089;49.852;19.700;2023-12-20T07:16:54;6.10;99.90
21849;DHT22;11089;49.852;19.700;2023-12-20T07:19:55;6.00;1.00
21849;DHT22;11089;49.852;19.700;2023-12-20T07:22:56;6.00;1.00
21849;DHT22;11089;49.852;19.700;2023-12-20T07:25:56;6.00;1.00
21849;DHT22;11089;49.852;19.700;2023-12-20T07:28:57;5.90;1.00
21849;DHT22;11089;49.852;19.700;2023-12-20T07:31:59;5.90;1.00
21849;DHT22;11089;49.852;19.700;2023-12-20T07:35:00;5.80;99.90
21849;DHT22;11089;49.852;19.700;2023-12-20T07:38:01;5.70;1.00
21849;DHT22;11089;49.852;19.700;2023-12-20T07:41:03;5.50;99.90
21849;DHT22;11089;49.852;19.700;2023-12-20T07:44:04;5.50;1.00
21849;DHT22;11089;49.852;19.700;2023-12-20T07:47:05;5.50;1.00
21849;DHT22;11089;49.852;19.700;2023-12-20T07:50:06;5.50;1.00
21849;DHT22;11089;49.852;19.700;2023-12-20T07:53:08;5.60;53.30
21849;DHT22;11089;49.852;19.700;2023-12-20T07:56:16;5.70;1.00
21849;DHT22;11089;49.852;19.700;2023-12-20T07:59:17;5.70;1.00
21849;DHT22;11089;49.852;19.700;2023-12-20T08:02:18;5.60;1.00
21849;DHT22;11089;49.852;19.700;2023-12-20T08:05:19;5.70;1.00
21849;DHT22;11089;49.852;19.700;2023-12-20T08:08:20;5.70;99.90
21849;DHT22;11089;49.852;19.700;2023-12-20T08:11:21;5.80;1.00
21849;DHT22;11089;49.852;19.700;2023-12-20T08:14:22;5.80;99.90
21849;DHT22;11089;49.852;19.700;2023-12-20T08:17:23;5.80;99.90
21849;DHT22;11089;49.852;19.700;2023-12-20T08:20:24;5.80;1.00
21849;DHT22;11089;49.852;19.700;2023-12-20T08:23:25;5.70;85.00
21849;DHT22;11089;49.852;19.700;2023-12-20T08:26:26;5.70;99.90
21849;DHT22;11089;49.852;19.700;2023-12-20T08:29:27;5.80;1.00
21849;DHT22;11089;49.852;19.700;2023-12-20T08:32:28;5.70;5.70
21849;DHT22;11089;49.852;19.700;2023-12-20T08:35:29;5.70;25.50
21849;DHT22;11089;49.852;19.700;2023-12-20T08:38:30;5.70;1.00
21849;DHT22;11089;49.852;19.700;2023-12-20T08:41:31;5.70;99.90
21849;DHT22;11089;49.852;19.700;2023-12-20T08:44:32;5.80;99.30
21849;DHT22;11089;49.852;19.700;2023-12-20T08:47:33;5.80;99.90
21849;DHT22;11089;49.852;19.700;2023-12-20T08:50:34;5.70;99.90
21849;DHT22;11089;49.852;19.700;2023-12-20T08:53:35;5.80;1.00
21849;DHT22;11089;49.852;19.700;2023-12-20T08:56:36;5.70;1.00
21849;DHT22;11089;49.852;19.700;2023-12-20T08:59:37;5.80;1.00
21849;DHT22;11089;49.852;19.700;2023-12-20T09:02:38;5.70;1.00
21849;DHT22;11089;49.852;19.700;2023-12-20T09:05:39;5.80;99.90
21849;DHT22;11089;49.852;19.700;2023-12-20T09:08:40;5.80;99.90
21849;DHT22;11089;49.852;19.700;2023-12-20T09:11:41;5.80;1.00
21849;DHT22;11089;49.852;19.700;2023-12-20T09:14:42;5.90;99.90
21849;DHT22;11089;49.852;19.700;2023-12-20T09:17:43;5.80;1.00
21849;DHT22;11089;49.852;19.700;2023-12-20T09:20:44;5.90;99.90
21849;DHT22;11089;49.852;19.700;2023-12-20T09:23:45;5.90;99.90
21849;DHT22;11089;49.852;19.700;2023-12-20T09:26:46;5.90;1.00
21849;DHT22;11089;49.852;19.700;2023-12-20T09:29:47;5.90;1.00
21849;DHT22;11089;49.852;19.700;2023-12-20T09:32:49;6.00;99.90
21849;DHT22;11089;49.852;19.700;2023-12-20T09:35:49;5.90;1.00
21849;DHT22;11089;49.852;19.700;2023-12-20T09:38:50;6.00;1.00
21849;DHT22;11089;49.852;19.700;2023-12-20T09:42:06;6.00;1.00
21849;DHT22;11089;49.852;19.700;2023-12-20T09:45:09;6.10;1.00
21849;DHT22;11089;49.852;19.700;2023-12-20T09:48:13;6.00;1.00
21849;DHT22;11089;49.852;19.700;2023-12-20T09:51:17;5.90;1.00
21849;DHT22;11089;49.852;19.700;2023-12-20T09:54:18;5.90;1.00
21849;DHT22;11089;49.852;19.700;2023-12-20T09:57:19;5.90;1.00
21849;DHT22;11089;49.852;19.700;2023-12-20T10:00:20;5.90;1.00
21849;DHT22;11089;49.852;19.700;2023-12-20T10:03:25;5.90;99.90
21849;DHT22;11089;49.852;19.700;2023-12-20T10:06:29;5.80;1.00
21849;DHT22;11089;49.852;19.700;2023-12-20T10:09:31;5.50;1.00
21849;DHT22;11089;49.852;19.700;2023-12-20T10:12:33;5.50;1.00
21849;DHT22;11089;49.852;19.700;2023-12-20T10:15:34;5.50;1.00
21849;DHT22;11089;49.852;19.700;2023-12-20T10:18:35;5.50;99.90
21849;DHT22;11089;49.852;19.700;2023-12-20T10:21:36;5.50;99.90
21849;DHT22;11089;49.852;19.700;2023-12-20T10:24:37;5.60;99.90
21849;DHT22;11089;49.852;19.700;2023-12-20T10:27:38;5.50;99.90
21849;DHT22;11089;49.852;19.700;2023-12-20T10:30:40;5.60;99.90
21849;DHT22;11089;49.852;19.700;2023-12-20T10:33:41;5.60;99.90
21849;DHT22;11089;49.852;19.700;2023-12-20T10:36:42;5.60;1.00
21849;DHT22;11089;49.852;19.700;2023-12-20T10:39:43;5.50;8.30
21849;DHT22;11089;49.852;19.700;2023-12-20T10:42:45;5.40;1.00
21849;DHT22;11089;49.852;19.700;2023-12-20T10:45:46;5.30;7.70
21849;DHT22;11089;49.852;19.700;2023-12-20T10:48:47;5.20;1.00
21849;DHT22;11089;49.852;19.700;2023-12-20T10:51:50;5.30;1.00
21849;DHT22;11089;49.852;19.700;2023-12-20T10:54:52;5.30;99.90
21849;DHT22;11089;49.852;19.700;2023-12-20T10:58:23;5.30;99.90
21849;DHT22;11089;49.852;19.700;2023-12-20T11:01:25;5.40;99.90
21849;DHT22;11089;49.852;19.700;2023-12-20T11:04:35;5.40;1.00
21849;DHT22;11089;49.852;19.700;2023-12-20T11:07:45;5.40;1.00
21849;DHT22;11089;49.852;19.700;2023-12-20T11:11:04;5.40;1.00
21849;DHT22;11089;49.852;19.700;2023-12-20T11:14:11;5.40;1.00
21849;DHT22;11089;49.852;19.700;2023-12-20T11:17:14;5.30;1.00
21849;DHT22;11089;49.852;19.700;2023-12-20T11:20:17;5.40;1.00
21849;DHT22;11089;49.852;19.700;2023-12-20T11:23:18;5.40;99.90
21849;DHT22;11089;49.852;19.700;2023-12-20T11:26:26;5.30;1.00
21849;DHT22;11089;49.852;19.700;2023-12-20T11:29:35;5.40;99.90
21849;DHT22;11089;49.852;19.700;2023-12-20T11:32:37;5.30;1.00
21849;DHT22;11089;49.852;19.700;2023-12-20T11:35:39;5.40;99.90
21849;DHT22;11089;49.852;19.700;2023-12-20T11:38:57;5.30;99.90
21849;DHT22;11089;49.852;19.700;2023-12-20T11:42:04;5.40;74.60
21849;DHT22;11089;49.852;19.700;2023-12-20T11:45:09;5.40;99.90
21849;DHT22;11089;49.852;19.700;2023-12-20T11:48:10;5.40;1.00
21849;DHT22;11089;49.852;19.700;2023-12-20T11:51:12;5.30;99.90
21849;DHT22;11089;49.852;19.700;2023-12-20T11:54:15;5.30;99.90
21849;DHT22;11089;49.852;19.700;2023-12-20T11:57:17;5.30;1.00
21849;DHT22;11089;49.852;19.700;2023-12-20T12:00:18;5.30;1.00
21849;DHT22;11089;49.852;19.700;2023-12-20T12:03:21;5.30;99.90
21849;DHT22;11089;49.852;19.700;2023-12-20T12:06:22;5.30;99.90
21849;DHT22;11089;49.852;19.700;2023-12-20T12:09:23;5.30;99.90
21849;DHT22;11089;49.852;19.700;2023-12-20T12:12:24;5.20;99.90
21849;DHT22;11089;49.852;19.700;2023-12-20T12:15:27;5.30;1.00
21849;DHT22;11089;49.852;19.700;2023-12-20T12:18:28;5.30;1.00
21849;DHT22;11089;49.852;19.700;2023-12-20T12:21:29;5.30;99.90
21849;DHT22;11089;49.852;19.700;2023-12-20T12:24:30;5.30;99.90
21849;DHT22;11089;49.852;19.700;2023-12-20T12:27:31;5.30;1.00
21849;DHT22;11089;49.852;19.700;2023-12-20T12:30:32;5.30;99.90
21849;DHT22;11089;49.852;19.700;2023-12-20T12:33:33;5.40;1.00
21849;DHT22;11089;49.852;19.700;2023-12-20T12:36:34;5.40;1.00
21849;DHT22;11089;49.852;19.700;2023-12-20T12:39:34;5.40;1.00
21849;DHT22;11089;49.852;19.700;2023-12-20T12:42:36;5.40;1.00
21849;DHT22;11089;49.852;19.700;2023-12-20T12:45:37;5.40;99.90
21849;DHT22;11089;49.852;19.700;2023-12-20T12:48:38;5.40;99.90
21849;DHT22;11089;49.852;19.700;2023-12-20T12:51:39;5.30;1.00
21849;DHT22;11089;49.852;19.700;2023-12-20T12:54:40;5.30;99.90
21849;DHT22;11089;49.852;19.700;2023-12-20T12:57:42;5.40;1.00
21849;DHT22;11089;49.852;19.700;2023-12-20T13:00:44;5.30;99.90
21849;DHT22;11089;49.852;19.700;2023-12-20T13:03:44;5.30;99.90
21849;DHT22;11089;49.852;19.700;2023-12-20T13:06:45;5.30;99.90
21849;DHT22;11089;49.852;19.700;2023-12-20T13:09:47;5.30;1.00
21849;DHT22;11089;49.852;19.700;2023-12-20T13:12:48;5.20;99.90
21849;DHT22;11089;49.852;19.700;2023-12-20T13:15:49;5.20;1.00
21849;DHT22;11089;49.852;19.700;2023-12-20T13:18:53;5.20;1.00
21849;DHT22;11089;49.852;19.700;2023-12-20T13:21:54;5.30;1.00
21849;DHT22;11089;49.852;19.700;2023-12-20T13:24:55;5.20;99.90
21849;DHT22;11089;49.852;19.700;2023-12-20T13:27:56;5.20;1.00
21849;DHT22;11089;49.852;19.700;2023-12-20T13:30:57;5.30;99.90
21849;DHT22;11089;49.852;19.700;2023-12-20T13:33:58;5.30;1.00
21849;DHT22;11089;49.852;19.700;2023-12-20T13:36:59;5.40;99.90
21849;DHT22;11089;49.852;19.700;2023-12-20T13:40:00;5.30;99.90
21849;DHT22;11089;49.852;19.700;2023-12-20T13:43:02;5.30;1.00
21849;DHT22;11089;49.852;19.700;2023-12-20T13:46:03;5.20;99.90
21849;DHT22;11089;49.852;19.700;2023-12-20T13:49:04;5.10;99.90
21849;DHT22;11089;49.852;19.700;2023-12-20T13:52:05;5.10;1.00
21849;DHT22;11089;49.852;19.700;2023-12-20T13:55:07;5.10;1.00
21849;DHT22;11089;49.852;19.700;2023-12-20T13:58:08;5.00;17.20
21849;DHT22;11089;49.852;19.700;2023-12-20T14:01:10;5.00;99.90
21849;DHT22;11089;49.852;19.700;2023-12-20T14:04:12;5.00;1.00
21849;DHT22;11089;49.852;19.700;2023-12-20T14:07:13;5.00;1.00
21849;DHT22;11089;49.852;19.700;2023-12-20T14:10:15;5.00;99.90
21849;DHT22;11089;49.852;19.700;2023-12-20T14:13:15;4.90;99.90
21849;DHT22;11089;49.852;19.700;2023-12-20T14:16:17;4.90;1.00
21849;DHT22;11089;49.852;19.700;2023-12-20T14:19:18;5.00;1.00
21849;DHT22;11089;49.852;19.700;2023-12-20T14:22:19;5.00;1.00
21849;DHT22;11089;49.852;19.700;2023-12-20T14:25:20;5.00;1.00
21849;DHT22;11089;49.852;19.700;2023-12-20T14:28:21;5.00;99.90
21849;DHT22;11089;49.852;19.700;2023-12-20T14:31:23;5.00;99.90
21849;DHT22;11089;49.852;19.700;2023-12-20T14:34:25;5.10;99.90
21849;DHT22;11089;49.852;19.700;2023-12-20T14:37:26;5.10;99.90
21849;DHT22;11089;49.852;19.700;2023-12-20T14:40:28;5.10;99.90
21849;DHT22;11089;49.852;19.700;2023-12-20T14:43:29;5.10;1.00
21849;DHT22;11089;49.852;19.700;2023-12-20T14:46:30;5.10;1.00
21849;DHT22;11089;49.852;19.700;2023-12-20T14:49:31;5.00;99.90
21849;DHT22;11089;49.852;19.700;2023-12-20T14:52:33;4.90;99.90
21849;DHT22;11089;49.852;19.700;2023-12-20T14:55:37;4.90;99.90
21849;DHT22;11089;49.852;19.700;2023-12-20T14:58:39;4.90;99.90
21849;DHT22;11089;49.852;19.700;2023-12-20T15:01:41;4.80;99.90
21849;DHT22;11089;49.852;19.700;2023-12-20T15:04:42;4.80;99.90
21849;DHT22;11089;49.852;19.700;2023-12-20T15:07:43;4.80;1.00
21849;DHT22;11089;49.852;19.700;2023-12-20T15:10:44;4.70;1.00
21849;DHT22;11089;49.852;19.700;2023-12-20T15:13:45;4.70;1.00
21849;DHT22;11089;49.852;19.700;2023-12-20T15:16:54;4.70;1.00
21849;DHT22;11089;49.852;19.700;2023-12-20T15:19:56;4.70;99.90
21849;DHT22;11089;49.852;19.700;2023-12-20T15:22:57;4.70;99.90
21849;DHT22;11089;49.852;19.700;2023-12-20T15:25:59;4.70;99.90
21849;DHT22;11089;49.852;19.700;2023-12-20T15:29:03;4.70;99.90
21849;DHT22;11089;49.852;19.700;2023-12-20T15:32:05;4.80;99.90
21849;DHT22;11089;49.852;19.700;2023-12-20T15:35:06;4.80;99.90
21849;DHT22;11089;49.852;19.700;2023-12-20T15:38:07;4.80;99.90
21849;DHT22;11089;49.852;19.700;2023-12-20T15:41:08;4.80;99.90
21849;DHT22;11089;49.852;19.700;2023-12-20T15:44:09;4.90;1.00
21849;DHT22;11089;49.852;19.700;2023-12-20T15:47:10;4.80;1.00
21849;DHT22;11089;49.852;19.700;2023-12-20T15:50:12;4.80;1.00
21849;DHT22;11089;49.852;19.700;2023-12-20T15:53:13;4.80;1.00
21849;DHT22;11089;49.852;19.700;2023-12-20T15:56:13;4.80;1.00
21849;DHT22;11089;49.852;19.700;2023-12-20T15:59:14;4.80;1.00
21849;DHT22;11089;49.852;19.700;2023-12-20T16:02:15;4.80;1.00
21849;DHT22;11089;49.852;19.700;2023-12-20T16:05:17;4.80;99.90
21849;DHT22;11089;49.852;19.700;2023-12-20T16:08:17;4.80;99.90
21849;DHT22;11089;49.852;19.700;2023-12-20T16:11:18;4.80;99.90
21849;DHT22;11089;49.852;19.700;2023-12-20T16:14:20;4.80;99.90
21849;DHT22;11089;49.852;19.700;2023-12-20T16:17:21;4.80;99.90
21849;DHT22;11089;49.852;19.700;2023-12-20T16:20:22;4.90;99.90
21849;DHT22;11089;49.852;19.700;2023-12-20T16:23:24;4.90;29.30
21849;DHT22;11089;49.852;19.700;2023-12-20T16:26:25;4.90;40.40
21849;DHT22;11089;49.852;19.700;2023-12-20T16:29:26;4.90;1.00
21849;DHT22;11089;49.852;19.700;2023-12-20T16:32:27;4.90;1.00
21849;DHT22;11089;49.852;19.700;2023-12-20T16:35:28;4.90;1.00
21849;DHT22;11089;49.852;19.700;2023-12-20T16:38:29;4.80;36.90
21849;DHT22;11089;49.852;19.700;2023-12-20T16:41:30;4.80;1.00
21849;DHT22;11089;49.852;19.700;2023-12-20T16:44:31;4.80;1.70
21849;DHT22;11089;49.852;19.700;2023-12-20T16:47:31;4.80;1.00
21849;DHT22;11089;49.852;19.700;2023-12-20T16:50:32;4.70;1.00
21849;DHT22;11089;49.852;19.700;2023-12-20T16:53:33;4.60;1.00
21849;DHT22;11089;49.852;19.700;2023-12-20T16:56:34;4.60;17.70
21849;DHT22;11089;49.852;19.700;2023-12-20T16:59:35;4.50;1.00
21849;DHT22;11089;49.852;19.700;2023-12-20T17:02:36;4.40;24.90
21849;DHT22;11089;49.852;19.700;2023-12-20T17:05:37;4.40;1.00
21849;DHT22;11089;49.852;19.700;2023-12-20T17:08:38;4.40;1.00
21849;DHT22;11089;49.852;19.700;2023-12-20T17:11:40;4.30;1.00
21849;DHT22;11089;49.852;19.700;2023-12-20T17:14:40;4.40;1.00
21849;DHT22;11089;49.852;19.700;2023-12-20T17:17:41;4.40;1.00
21849;DHT22;11089;49.852;19.700;2023-12-20T17:20:42;4.30;1.00
21849;DHT22;11089;49.852;19.700;2023-12-20T17:23:44;4.30;1.00
21849;DHT22;11089;49.852;19.700;2023-12-20T17:26:45;4.30;1.00
21849;DHT22;11089;49.852;19.700;2023-12-20T17:29:46;4.30;1.00
21849;DHT22;11089;49.852;19.700;2023-12-20T17:32:48;4.30;1.00
21849;DHT22;11089;49.852;19.700;2023-12-20T17:35:50;4.20;1.00
21849;DHT22;11089;49.852;19.700;2023-12-20T17:38:51;4.20;1.00
21849;DHT22;11089;49.852;19.700;2023-12-20T17:41:52;4.20;1.00
21849;DHT22;11089;49.852;19.700;2023-12-20T17:44:53;4.20;1.00
21849;DHT22;11089;49.852;19.700;2023-12-20T17:47:54;4.10;1.00
21849;DHT22;11089;49.852;19.700;2023-12-20T17:50:55;4.10;1.00
21849;DHT22;11089;49.852;19.700;2023-12-20T17:53:57;4.10;1.00
21849;DHT22;11089;49.852;19.700;2023-12-20T17:56:57;4.10;99.90
21849;DHT22;11089;49.852;19.700;2023-12-20T18:00:14;4.00;1.00
21849;DHT22;11089;49.852;19.700;2023-12-20T18:03:16;4.00;1.00
21849;DHT22;11089;49.852;19.700;2023-12-20T18:06:17;4.00;1.00
21849;DHT22;11089;49.852;19.700;2023-12-20T18:09:18;4.00;1.00
21849;DHT22;11089;49.852;19.700;2023-12-20T18:12:19;3.90;1.00
21849;DHT22;11089;49.852;19.700;2023-12-20T18:15:20;3.90;1.00
21849;DHT22;11089;49.852;19.700;2023-12-20T18:18:21;3.90;1.00
21849;DHT22;11089;49.852;19.700;2023-12-20T18:21:22;3.90;1.00
21849;DHT22;11089;49.852;19.700;2023-12-20T18:24:23;3.90;1.00
21849;DHT22;11089;49.852;19.700;2023-12-20T18:27:24;3.90;1.00
21849;DHT22;11089;49.852;19.700;2023-12-20T18:30:28;3.90;1.00
21849;DHT22;11089;49.852;19.700;2023-12-20T18:33:29;4.00;1.00
21849;DHT22;11089;49.852;19.700;2023-12-20T18:36:34;4.00;1.00
21849;DHT22;11089;49.852;19.700;2023-12-20T18:39:38;4.00;1.00
21849;DHT22;11089;49.852;19.700;2023-12-20T18:42:39;4.00;1.00
21849;DHT22;11089;49.852;19.700;2023-12-20T18:45:41;4.00;1.00
21849;DHT22;11089;49.852;19.700;2023-12-20T18:48:42;4.00;1.00
21849;DHT22;11089;49.852;19.700;2023-12-20T18:51:44;4.10;1.00
21849;DHT22;11089;49.852;19.700;2023-12-20T18:54:45;4.10;1.00
21849;DHT22;11089;49.852;19.700;2023-12-20T18:57:46;4.10;1.00
21849;DHT22;11089;49.852;19.700;2023-12-20T19:00:48;4.10;99.90
21849;DHT22;11089;49.852;19.700;2023-12-20T19:03:49;4.20;99.90
21849;DHT22;11089;49.852;19.700;2023-12-20T19:06:50;4.20;99.90
21849;DHT22;11089;49.852;19.700;2023-12-20T19:09:57;4.30;99.90
21849;DHT22;11089;49.852;19.700;2023-12-20T19:12:58;4.30;99.90
21849;DHT22;11089;49.852;19.700;2023-12-20T19:16:00;4.30;99.90